createdAt,value
2023-02-23T00:02:06.603Z,101148.78
2023-02-23T00:04:35.308Z,101152.47
2023-02-23T00:07:02.345Z,101147.06
2023-02-23T00:09:35.490Z,101150.63
2023-02-23T00:12:07.755Z,101157.88
2023-02-23T00:14:37.630Z,101151.59
2023-02-23T00:17:05.077Z,101157.88
2023-02-23T00:19:33.631Z,101156.03
2023-02-23T00:22:01.282Z,101150.75
2023-02-23T00:24:28.073Z,101150.88
2023-02-23T00:26:55.085Z,101151.00
2023-02-23T00:29:23.878Z,101152.09
2023-02-23T00:31:52.088Z,101149.63
2023-02-23T00:34:23.704Z,101149.03
2023-02-23T00:36:54.127Z,101149.16
2023-02-23T00:39:26.794Z,101142.16
2023-02-23T00:41:55.353Z,101143.00
2023-02-23T00:44:24.078Z,101147.53
2023-02-23T00:46:52.012Z,101137.72
2023-02-23T00:49:20.429Z,101144.09
2023-02-23T00:51:47.473Z,101149.38
2023-02-23T00:54:15.642Z,101136.00
2023-02-23T00:56:43.016Z,101138.72
2023-02-23T00:59:10.865Z,101146.81
2023-02-23T01:01:38.736Z,101148.78
2023-02-23T01:04:07.352Z,101146.19
2023-02-23T01:06:37.572Z,101147.06
2023-02-23T01:09:09.281Z,101139.06
2023-02-23T01:11:36.026Z,101144.59
2023-02-23T01:14:03.165Z,101140.19
2023-02-23T01:16:33.178Z,101134.91
2023-02-23T01:19:03.506Z,101141.28
2023-02-23T01:21:36.077Z,101140.41
2023-02-23T01:24:03.428Z,101138.81
2023-02-23T01:26:36.418Z,101145.44
2023-02-23T01:29:12.681Z,101147.50
2023-02-23T01:31:42.084Z,101147.97
2023-02-23T01:34:11.917Z,101150.91
2023-02-23T01:36:40.265Z,101152.97
2023-02-23T01:39:12.183Z,101143.91
2023-02-23T01:41:42.559Z,101144.13
2023-02-23T01:44:15.387Z,101144.25
2023-02-23T01:46:45.555Z,101149.03
2023-02-23T01:49:17.718Z,101150.00
2023-02-23T01:51:48.569Z,101153.69
2023-02-23T01:54:29.059Z,101155.59
2023-02-23T01:56:58.482Z,101155.50
2023-02-23T01:59:35.200Z,101159.94
2023-02-23T02:02:05.621Z,101160.78
2023-02-23T02:04:44.602Z,101149.88
2023-02-23T02:07:18.051Z,101162.41
2023-02-23T02:10:09.763Z,101168.78
2023-02-23T02:12:41.442Z,101162.63
2023-02-23T02:15:17.156Z,101165.34
2023-02-23T02:17:59.569Z,101166.28
2023-02-23T02:20:32.759Z,101169.94
2023-02-23T02:23:11.686Z,101168.34
2023-02-23T02:26:09.873Z,101160.50
2023-02-23T02:28:54.930Z,101161.47
2023-02-23T02:31:28.024Z,101162.56
2023-02-23T02:34:33.682Z,101160.22
2023-02-23T02:37:24.508Z,101161.09
2023-02-23T02:40:22.433Z,101154.72
2023-02-23T02:43:24.102Z,101148.47
2023-02-23T02:46:03.651Z,101153.63
2023-02-23T02:48:37.239Z,101161.72
2023-02-23T02:51:24.865Z,101157.41
2023-02-23T02:54:10.616Z,101157.53
2023-02-23T02:56:43.944Z,101163.78
2023-02-23T02:59:33.253Z,101161.09
2023-02-23T03:02:18.594Z,101162.91
2023-02-23T03:05:03.944Z,101159.34
2023-02-23T03:08:02.550Z,101158.63
2023-02-23T03:11:00.139Z,101160.44
2023-02-23T03:14:12.317Z,101158.84
2023-02-23T03:16:57.797Z,101158.84
2023-02-23T03:19:55.359Z,101160.81
2023-02-23T03:22:46.979Z,101155.53
2023-02-23T03:25:40.139Z,101169.00
2023-02-23T03:28:33.502Z,101162.75
2023-02-23T03:31:25.873Z,101167.16
2023-02-23T03:34:28.320Z,101167.16
2023-02-23T03:37:32.120Z,101165.56
2023-02-23T03:40:29.685Z,101165.69
2023-02-23T03:43:18.338Z,101164.94
2023-02-23T03:46:07.200Z,101167.75
2023-02-23T03:48:55.141Z,101175.09
2023-02-23T03:51:43.479Z,101175.22
2023-02-23T03:54:34.479Z,101176.06
2023-02-23T03:57:24.248Z,101179.63
2023-02-23T04:00:16.500Z,101183.28
2023-02-23T04:03:06.066Z,101179.63
2023-02-23T04:05:55.541Z,101178.75
2023-02-23T04:08:46.853Z,101173.38
2023-02-23T04:12:03.057Z,101182.31
2023-02-23T04:14:42.998Z,101184.91
2023-02-23T04:17:12.316Z,101180.47
2023-02-23T04:19:38.937Z,101187.72
2023-02-23T04:22:05.573Z,101187.72
2023-02-23T04:24:32.112Z,101192.25
2023-02-23T04:26:58.844Z,101186.00
2023-02-23T04:29:25.492Z,101191.38
2023-02-23T04:31:54.126Z,101194.06
2023-02-23T04:34:21.110Z,101202.16
2023-02-23T04:36:47.957Z,101196.03
2023-02-23T04:39:14.590Z,101202.38
2023-02-23T04:41:41.232Z,101200.66
2023-02-23T04:44:07.863Z,101206.19
2023-02-23T04:46:34.399Z,101203.38
2023-02-23T04:49:01.088Z,101212.31
2023-02-23T04:51:32.313Z,101207.78
2023-02-23T04:53:59.016Z,101207.78
2023-02-23T04:56:26.066Z,101208.00
2023-02-23T04:58:52.704Z,101210.72
2023-02-23T05:01:21.015Z,101208.34
2023-02-23T05:03:49.054Z,101209.31
2023-02-23T05:06:16.500Z,101213.84
2023-02-23T05:08:43.443Z,101211.16
2023-02-23T05:11:10.495Z,101211.91
2023-02-23T05:13:37.130Z,101216.44
2023-02-23T05:16:04.356Z,101208.34
2023-02-23T05:18:31.120Z,101213.75
2023-02-23T05:21:07.093Z,101221.09
2023-02-23T05:23:35.007Z,101222.91
2023-02-23T05:26:04.267Z,101224.88
2023-02-23T05:28:30.982Z,101227.44
2023-02-23T05:30:57.751Z,101227.44
2023-02-23T05:33:24.556Z,101231.00
2023-02-23T05:35:51.195Z,101226.34
2023-02-23T05:38:17.940Z,101230.03
2023-02-23T05:40:44.561Z,101236.50
2023-02-23T05:43:11.204Z,101230.25
2023-02-23T05:45:42.142Z,101231.22
2023-02-23T05:48:10.208Z,101223.13
2023-02-23T05:50:37.156Z,101229.38
2023-02-23T05:53:03.993Z,101231.22
2023-02-23T05:55:30.839Z,101226.81
2023-02-23T05:57:57.469Z,101232.19
2023-02-23T06:00:24.414Z,101228.72
2023-02-23T06:02:53.058Z,101232.38
2023-02-23T06:05:19.633Z,101237.91
2023-02-23T06:07:46.986Z,101238.75
2023-02-23T06:10:14.452Z,101238.75
2023-02-23T06:12:41.192Z,101245.00
2023-02-23T06:15:08.537Z,101238.75
2023-02-23T06:17:35.910Z,101240.59
2023-02-23T06:20:05.072Z,101243.28
2023-02-23T06:22:31.758Z,101253.09
2023-02-23T06:24:58.463Z,101247.81
2023-02-23T06:27:26.232Z,101255.03
2023-02-23T06:29:52.871Z,101255.03
2023-02-23T06:32:19.545Z,101255.16
2023-02-23T06:34:48.806Z,101259.56
2023-02-23T06:37:15.635Z,101261.50
2023-02-23T06:39:42.275Z,101266.03
2023-02-23T06:42:08.909Z,101266.91
2023-02-23T06:44:36.363Z,101270.56
2023-02-23T06:47:05.821Z,101278.66
2023-02-23T06:49:32.695Z,101271.53
2023-02-23T06:51:59.651Z,101280.47
2023-02-23T06:54:26.567Z,101273.25
2023-02-23T06:56:54.776Z,101285.75
2023-02-23T06:59:21.514Z,101284.03
2023-02-23T07:01:48.161Z,101282.41
2023-02-23T07:04:16.763Z,101294.16
2023-02-23T07:06:43.606Z,101295.13
2023-02-23T07:09:10.314Z,101293.41
2023-02-23T07:11:37.147Z,101294.38
2023-02-23T07:14:03.808Z,101300.63
2023-02-23T07:16:30.663Z,101303.44
2023-02-23T07:18:57.469Z,101303.78
2023-02-23T07:21:24.009Z,101307.66
2023-02-23T07:23:50.739Z,101314.22
2023-02-23T07:26:18.421Z,101313.47
2023-02-23T07:28:45.252Z,101305.63
2023-02-23T07:31:12.131Z,101316.59
2023-02-23T07:33:38.777Z,101314.13
2023-02-23T07:36:05.664Z,101317.91
2023-02-23T07:38:32.403Z,101326.09
2023-02-23T07:40:59.035Z,101326.09
2023-02-23T07:43:25.670Z,101323.41
2023-02-23T07:45:52.248Z,101336.97
2023-02-23T07:48:19.360Z,101332.56
2023-02-23T07:50:46.099Z,101334.38
2023-02-23T07:53:13.244Z,101340.53
2023-02-23T07:55:40.209Z,101343.22
2023-02-23T07:58:07.650Z,101344.06
2023-02-23T08:00:36.853Z,101345.03
2023-02-23T08:03:03.394Z,101346.88
2023-02-23T08:05:30.125Z,101354.09
2023-02-23T08:07:58.104Z,101354.97
2023-02-23T08:10:25.033Z,101354.09
2023-02-23T08:12:51.953Z,101358.41
2023-02-23T08:15:18.707Z,101369.94
2023-02-23T08:17:45.348Z,101361.84
2023-02-23T08:20:12.206Z,101372.63
2023-02-23T08:22:48.752Z,101369.94
2023-02-23T08:25:16.530Z,101378.75
2023-02-23T08:27:43.156Z,101378.75
2023-02-23T08:30:10.612Z,101382.44
2023-02-23T08:32:37.292Z,101380.69
2023-02-23T08:35:04.195Z,101387.81
2023-02-23T08:37:30.932Z,101394.06
2023-02-23T08:39:59.309Z,101385.75
2023-02-23T08:42:26.042Z,101389.22
2023-02-23T08:44:52.780Z,101390.84
2023-02-23T08:47:23.520Z,101394.28
2023-02-23T08:49:50.978Z,101391.38
2023-02-23T08:52:18.013Z,101399.25
2023-02-23T08:54:44.741Z,101394.59
2023-02-23T08:57:12.673Z,101394.41
2023-02-23T08:59:41.215Z,101406.69
2023-02-23T09:02:14.803Z,101394.94
2023-02-23T09:04:42.149Z,101406.34
2023-02-23T09:07:13.194Z,101405.28
2023-02-23T09:09:39.806Z,101407.75
2023-02-23T09:12:06.771Z,101404.94
2023-02-23T09:14:33.820Z,101412.06
2023-02-23T09:17:00.562Z,101413.78
2023-02-23T09:19:27.601Z,101416.28
2023-02-23T09:21:54.238Z,101417.81
2023-02-23T09:24:22.106Z,101429.34
2023-02-23T09:26:49.771Z,101437.22
2023-02-23T09:29:16.399Z,101433.44
2023-02-23T09:31:43.841Z,101431.38
2023-02-23T09:34:12.338Z,101434.72
2023-02-23T09:36:39.174Z,101430.31
2023-02-23T09:39:05.819Z,101432.13
2023-02-23T09:42:01.650Z,101433.00
2023-02-23T09:44:40.528Z,101437.19
2023-02-23T09:47:31.123Z,101444.19
2023-02-23T09:50:00.345Z,101435.78
2023-02-23T09:53:03.627Z,101440.22
2023-02-23T09:55:31.921Z,101440.75
2023-02-23T09:58:08.087Z,101438.91
2023-02-23T10:00:44.243Z,101448.72
2023-02-23T10:03:17.950Z,101446.88
2023-02-23T10:05:54.622Z,101453.34
2023-02-23T10:08:32.520Z,101465.97
2023-02-23T10:11:05.094Z,101452.38
2023-02-23T10:13:38.694Z,101456.06
2023-02-23T10:16:28.386Z,101452.59
2023-02-23T10:19:06.373Z,101455.19
2023-02-23T10:21:43.048Z,101455.94
2023-02-23T10:24:19.682Z,101454.09
2023-02-23T10:26:56.185Z,101457.66
2023-02-23T10:29:28.967Z,101453.03
2023-02-23T10:32:02.644Z,101455.63
2023-02-23T10:34:31.257Z,101454.75
2023-02-23T10:37:04.558Z,101452.81
2023-02-23T10:39:32.815Z,101457.97
2023-02-23T10:42:05.596Z,101464.22
2023-02-23T10:44:32.695Z,101466.81
2023-02-23T10:47:09.112Z,101467.56
2023-02-23T10:49:43.730Z,101466.59
2023-02-23T10:52:18.562Z,101464.56
2023-02-23T10:54:48.169Z,101470.63
2023-02-23T10:57:24.420Z,101472.13
2023-02-23T11:00:20.358Z,101464.88
2023-02-23T11:02:48.881Z,101474.47
2023-02-23T11:05:36.874Z,101479.75
2023-02-23T11:08:21.119Z,101478.69
2023-02-23T11:11:19.297Z,101487.53
2023-02-23T11:13:48.794Z,101480.41
2023-02-23T11:16:19.726Z,101481.25
2023-02-23T11:18:58.649Z,101480.28
2023-02-23T11:21:33.780Z,101468.56
2023-02-23T11:24:40.981Z,101473.94
2023-02-23T11:27:21.049Z,101473.94
2023-02-23T11:29:51.044Z,101472.00
2023-02-23T11:32:33.591Z,101472.63
2023-02-23T11:35:21.291Z,101459.91
2023-02-23T11:37:49.574Z,101463.47
2023-02-23T11:40:27.465Z,101459.78
2023-02-23T11:43:00.038Z,101462.47
2023-02-23T11:45:33.679Z,101449.09
2023-02-23T11:48:05.596Z,101455.13
2023-02-23T11:50:36.139Z,101457.50
2023-02-23T11:53:13.819Z,101452.63
2023-02-23T11:55:48.748Z,101454.00
2023-02-23T11:58:35.795Z,101451.19
2023-02-23T12:01:17.220Z,101461.88
2023-02-23T12:03:48.204Z,101463.47
2023-02-23T12:06:34.732Z,101467.78
2023-02-23T12:09:29.449Z,101464.13
2023-02-23T12:12:06.672Z,101458.84
2023-02-23T12:14:52.065Z,101458.72
2023-02-23T12:17:25.647Z,101458.50
2023-02-23T12:20:18.495Z,101454.81
2023-02-23T12:23:13.610Z,101450.91
2023-02-23T12:25:53.622Z,101447.47
2023-02-23T12:28:26.948Z,101452.75
2023-02-23T12:31:23.566Z,101441.94
2023-02-23T12:33:59.435Z,101450.03
2023-02-23T12:36:33.347Z,101455.44
2023-02-23T12:39:06.967Z,101450.16
2023-02-23T12:41:40.554Z,101444.66
2023-02-23T12:44:52.026Z,101447.34
2023-02-23T12:47:53.790Z,101438.38
2023-02-23T12:50:43.885Z,101443.66
2023-02-23T12:53:25.982Z,101437.41
2023-02-23T12:56:42.168Z,101442.81
2023-02-23T12:59:14.469Z,101443.56
2023-02-23T13:01:58.639Z,101452.63
2023-02-23T13:04:52.567Z,101455.22
2023-02-23T13:07:34.565Z,101449.94
2023-02-23T13:10:16.349Z,101447.47
2023-02-23T13:12:59.271Z,101458.16
2023-02-23T13:15:35.137Z,101454.47
2023-02-23T13:18:24.292Z,101448.22
2023-02-23T13:20:56.257Z,101449.81
2023-02-23T13:23:32.216Z,101446.13
2023-02-23T13:26:14.400Z,101447.63
2023-02-23T13:29:00.615Z,101446.53
2023-02-23T13:31:33.659Z,101441.13
2023-02-23T13:34:02.845Z,101444.81
2023-02-23T13:36:33.212Z,101444.94
2023-02-23T13:39:19.464Z,101436.09
2023-02-23T13:42:05.489Z,101442.47
2023-02-23T13:44:42.353Z,101438.16
2023-02-23T13:47:50.244Z,101440.34
2023-02-23T13:50:28.088Z,101436.91
2023-02-23T13:52:58.697Z,101433.56
2023-02-23T13:55:40.083Z,101434.13
2023-02-23T13:58:16.761Z,101438.16
2023-02-23T14:00:44.640Z,101441.94
2023-02-23T14:03:23.880Z,101447.56
2023-02-23T14:05:56.726Z,101456.75
2023-02-23T14:08:31.352Z,101459.69
2023-02-23T14:10:58.303Z,101458.19
2023-02-23T14:13:29.840Z,101458.28
2023-02-23T14:16:19.576Z,101459.50
2023-02-23T14:19:05.517Z,101461.22
2023-02-23T14:21:35.038Z,101464.56
2023-02-23T14:24:14.785Z,101463.47
2023-02-23T14:27:04.661Z,101457.44
2023-02-23T14:29:40.200Z,101456.56
2023-02-23T14:32:13.077Z,101456.44
2023-02-23T14:34:43.273Z,101455.47
2023-02-23T14:37:34.955Z,101457.31
2023-02-23T14:40:24.827Z,101458.28
2023-02-23T14:42:53.391Z,101460.13
2023-02-23T14:45:28.746Z,101464.66
2023-02-23T14:48:01.555Z,101462.94
2023-02-23T14:50:32.371Z,101464.78
2023-02-23T14:53:01.449Z,101472.31
2023-02-23T14:55:30.426Z,101474.47
2023-02-23T14:57:58.199Z,101472.88
2023-02-23T15:00:32.694Z,101468.56
2023-02-23T15:03:02.317Z,101471.38
2023-02-23T15:05:36.296Z,101476.00
2023-02-23T15:08:08.380Z,101472.44
2023-02-23T15:10:45.362Z,101471.69
2023-02-23T15:13:29.400Z,101470.09
2023-02-23T15:16:05.315Z,101472.78
2023-02-23T15:18:38.240Z,101463.72
2023-02-23T15:21:17.631Z,101474.63
2023-02-23T15:23:47.883Z,101468.31
2023-02-23T15:26:24.112Z,101467.47
2023-02-23T15:28:51.617Z,101467.56
2023-02-23T15:31:19.602Z,101472.09
2023-02-23T15:33:48.687Z,101464.00
2023-02-23T15:36:31.499Z,101469.28
2023-02-23T15:39:01.354Z,101461.03
2023-02-23T15:41:33.161Z,101460.78
2023-02-23T15:44:20.387Z,101466.94
2023-02-23T15:46:52.651Z,101458.09
2023-02-23T15:49:21.051Z,101462.75
2023-02-23T15:51:51.113Z,101469.09
2023-02-23T15:54:23.620Z,101478.81
2023-02-23T15:56:57.106Z,101476.88
2023-02-23T15:59:30.875Z,101471.59
2023-02-23T16:02:01.620Z,101476.13
2023-02-23T16:04:33.718Z,101470.72
2023-02-23T16:07:20.169Z,101473.63
2023-02-23T16:09:55.184Z,101478.25
2023-02-23T16:12:23.633Z,101477.38
2023-02-23T16:14:56.941Z,101482.03
2023-02-23T16:17:28.583Z,101483.75
2023-02-23T16:20:07.812Z,101476.53
2023-02-23T16:22:35.575Z,101482.03
2023-02-23T16:25:07.433Z,101476.75
2023-02-23T16:27:34.081Z,101480.19
2023-02-23T16:30:25.997Z,101482.03
2023-02-23T16:33:11.042Z,101485.47
2023-02-23T16:35:41.914Z,101479.34
2023-02-23T16:38:20.526Z,101486.44
2023-02-23T16:40:48.816Z,101490.69
2023-02-23T16:43:15.747Z,101487.88
2023-02-23T16:45:43.453Z,101493.16
2023-02-23T16:48:15.161Z,101498.34
2023-02-23T16:50:42.523Z,101500.69
2023-02-23T16:53:11.314Z,101511.03
2023-02-23T16:55:40.906Z,101504.38
2023-02-23T16:58:17.757Z,101504.69
2023-02-23T17:00:44.730Z,101507.56
2023-02-23T17:03:27.670Z,101504.31
2023-02-23T17:05:58.892Z,101494.78
2023-02-23T17:08:26.662Z,101498.00
2023-02-23T17:10:55.959Z,101503.28
2023-02-23T17:13:25.617Z,101502.31
2023-02-23T17:15:56.325Z,101495.94
2023-02-23T17:20:59.491Z,101503.94
2023-02-23T17:23:30.108Z,101502.72
2023-02-23T17:25:57.693Z,101505.06
2023-02-23T17:28:25.756Z,101504.63
2023-02-23T17:30:54.275Z,101513.13
2023-02-23T17:33:21.098Z,101509.22
2023-02-23T17:35:47.900Z,101504.47
2023-02-23T17:38:15.167Z,101511.47
2023-02-23T17:40:41.799Z,101512.22
2023-02-23T17:43:09.733Z,101515.78
2023-02-23T17:45:36.810Z,101512.13
2023-02-23T17:48:03.589Z,101528.31
2023-02-23T17:50:34.867Z,101516.88
2023-02-23T17:53:01.444Z,101517.00
2023-02-23T17:55:28.069Z,101510.75
2023-02-23T17:57:54.709Z,101509.75
2023-02-23T18:00:21.443Z,101510.75
2023-02-23T18:02:48.260Z,101511.91
2023-02-23T18:05:15.331Z,101510.88
2023-02-23T18:07:42.678Z,101514.63
2023-02-23T18:10:09.861Z,101515.75
2023-02-23T18:12:36.778Z,101511.34
2023-02-23T18:15:03.825Z,101509.66
2023-02-23T18:17:32.500Z,101505.97
2023-02-23T18:20:00.346Z,101514.97
2023-02-23T18:22:27.004Z,101518.16
2023-02-23T18:24:53.641Z,101525.06
2023-02-23T18:27:20.172Z,101528.22
2023-02-23T18:29:46.706Z,101526.69
2023-02-23T18:32:13.534Z,101526.16
2023-02-23T18:34:40.297Z,101519.34
2023-02-23T18:37:10.240Z,101536.81
2023-02-23T18:39:37.246Z,101535.53
2023-02-23T18:42:04.477Z,101529.75
2023-02-23T18:44:32.898Z,101531.91
2023-02-23T18:47:00.645Z,101539.53
2023-02-23T18:49:27.283Z,101537.16
2023-02-23T18:51:54.529Z,101543.84
2023-02-23T18:54:22.515Z,101544.16
2023-02-23T18:56:50.743Z,101548.22
2023-02-23T18:59:17.309Z,101544.09
2023-02-23T19:01:46.720Z,101549.69
2023-02-23T19:04:13.753Z,101545.38
2023-02-23T19:06:43.488Z,101550.09
2023-02-23T19:09:13.268Z,101550.31
2023-02-23T19:11:42.470Z,101555.03
2023-02-23T19:14:15.872Z,101566.88
2023-02-23T19:16:43.842Z,101561.69
2023-02-23T19:19:10.574Z,101559.28
2023-02-23T19:21:37.815Z,101570.16
2023-02-23T19:24:30.769Z,101570.47
2023-02-23T19:26:57.404Z,101571.50
2023-02-23T19:29:24.065Z,101570.81
2023-02-23T19:31:50.831Z,101565.66
2023-02-23T19:34:17.625Z,101568.50
2023-02-23T19:36:47.148Z,101565.16
2023-02-23T19:39:15.548Z,101578.78
2023-02-23T19:41:44.557Z,101578.03
2023-02-23T19:44:11.236Z,101582.66
2023-02-23T19:46:39.901Z,101588.22
2023-02-23T19:49:06.765Z,101588.31
2023-02-23T19:51:33.420Z,101585.81
2023-02-23T19:54:00.148Z,101576.22
2023-02-23T19:56:30.592Z,101583.72
2023-02-23T19:58:59.459Z,101583.16
2023-02-23T20:01:27.825Z,101577.84
2023-02-23T20:03:55.464Z,101581.50
2023-02-23T20:06:27.739Z,101581.50
2023-02-23T20:08:55.395Z,101585.16
2023-02-23T20:11:23.166Z,101593.31
2023-02-23T20:13:51.370Z,101589.88
2023-02-23T20:16:18.167Z,101588.34
2023-02-23T20:18:45.040Z,101589.28
2023-02-23T20:21:17.790Z,101588.53
2023-02-23T20:23:46.211Z,101581.31
2023-02-23T20:26:16.104Z,101580.66
2023-02-23T20:28:42.950Z,101583.53
2023-02-23T20:31:20.912Z,101594.28
2023-02-23T20:33:51.477Z,101596.97
2023-02-23T20:36:19.957Z,101589.97
2023-02-23T20:38:50.076Z,101594.66
2023-02-23T20:41:17.341Z,101587.72
2023-02-23T20:43:44.878Z,101593.47
2023-02-23T20:46:17.027Z,101588.38
2023-02-23T20:48:43.909Z,101584.16
2023-02-23T20:51:15.118Z,101580.78
2023-02-23T20:53:45.260Z,101584.53
2023-02-23T20:56:13.837Z,101583.66
2023-02-23T20:58:40.576Z,101577.50
2023-02-23T21:01:22.717Z,101575.78
2023-02-23T21:03:53.318Z,101580.19
2023-02-23T21:06:22.918Z,101575.78
2023-02-23T21:08:50.682Z,101580.38
2023-02-23T21:11:19.782Z,101574.50
2023-02-23T21:13:46.716Z,101569.31
2023-02-23T21:16:16.509Z,101574.69
2023-02-23T21:18:43.475Z,101572.88
2023-02-23T21:21:11.337Z,101569.50
2023-02-23T21:23:39.405Z,101559.03
2023-02-23T21:26:16.090Z,101562.88
2023-02-23T21:28:44.662Z,101555.19
2023-02-23T21:31:12.872Z,101555.53
2023-02-23T21:33:41.315Z,101552.28
2023-02-23T21:36:10.632Z,101553.41
2023-02-23T21:38:43.602Z,101552.63
2023-02-23T21:41:12.787Z,101552.88
2023-02-23T21:43:42.006Z,101551.41
2023-02-23T21:46:11.314Z,101557.06
2023-02-23T21:48:37.930Z,101547.44
2023-02-23T21:51:09.272Z,101552.13
2023-02-23T21:53:37.579Z,101557.66
2023-02-23T21:56:12.601Z,101550.63
2023-02-23T21:58:43.517Z,101556.09
2023-02-23T22:01:15.756Z,101555.22
2023-02-23T22:03:45.036Z,101554.53
2023-02-23T22:06:16.744Z,101562.69
2023-02-23T22:08:44.837Z,101565.63
2023-02-23T22:11:18.089Z,101560.44
2023-02-23T22:13:46.066Z,101562.44
2023-02-23T22:16:14.651Z,101556.38
2023-02-23T22:18:42.379Z,101559.31
2023-02-23T22:21:12.032Z,101556.03
2023-02-23T22:23:39.963Z,101559.84
2023-02-23T22:26:08.064Z,101561.16
2023-02-23T22:28:34.998Z,101555.22
2023-02-23T22:31:07.104Z,101551.84
2023-02-23T22:33:35.237Z,101547.53
2023-02-23T22:36:06.820Z,101554.88
2023-02-23T22:38:37.725Z,101551.59
2023-02-23T22:41:11.012Z,101548.22
2023-02-23T22:43:39.199Z,101560.06
2023-02-23T22:46:07.682Z,101559.44
2023-02-23T22:48:35.757Z,101560.47
2023-02-23T22:51:02.889Z,101555.38
2023-02-23T22:53:29.626Z,101552.94
2023-02-23T22:55:56.980Z,101547.81
2023-02-23T22:58:26.475Z,101546.34
2023-02-23T23:01:03.709Z,101555.41
2023-02-23T23:03:35.804Z,101545.09
2023-02-23T23:06:05.446Z,101547.94
2023-02-23T23:08:38.828Z,101547.25
2023-02-23T23:11:18.818Z,101546.63
2023-02-23T23:13:50.939Z,101545.09
2023-02-23T23:16:32.203Z,101533.78
2023-02-23T23:19:05.162Z,101533.84
2023-02-23T23:21:33.996Z,101534.00
2023-02-23T23:24:06.511Z,101539.53
2023-02-23T23:26:39.798Z,101546.00
2023-02-23T23:29:11.361Z,101541.66
2023-02-23T23:31:40.584Z,101537.34
2023-02-23T23:34:09.902Z,101532.13
2023-02-23T23:36:43.088Z,101536.78
2023-02-23T23:39:16.342Z,101533.31
2023-02-23T23:41:44.668Z,101520.88
2023-02-23T23:44:13.243Z,101513.88
2023-02-23T23:46:43.062Z,101509.72
2023-02-23T23:49:12.782Z,101503.72
2023-02-23T23:51:44.887Z,101504.03
2023-02-23T23:54:15.064Z,101504.31
2023-02-23T23:56:43.695Z,101497.41
2023-02-23T23:59:17.334Z,101496.84
